Time;durP1;ratioP1;P1;durP2;ratioP2;P2;SDS_P1;SDS_P2;PMS_P1;PMS_P2;Temp;Humidity;BMP_temperature;BMP_pressure;BME280_temperature;BME280_humidity;BME280_pressure;Samples;Min_cycle;Max_cycle;Signal;HPM_P1;HPM_P2
2022/07/19 00:01:40;;;;;;;3.22;2.65;;;;;;;;;;4961181;28;20033;-84
2022/07/19 00:04:06;;;;;;;5.13;2.80;;;;;;;;;;4966732;28;20019;-84
2022/07/19 00:06:32;;;;;;;4.20;2.58;;;;;;;;;;4970855;28;20019;-84
2022/07/19 00:08:58;;;;;;;3.40;2.63;;;;;;;;;;4968625;28;20054;-85
2022/07/19 00:11:23;;;;;;;4.35;2.72;;;;;;;;;;4967687;28;20039;-84
2022/07/19 00:13:48;;;;;;;6.15;3.33;;;;;;;;;;4967180;28;20533;-84
2022/07/19 00:16:14;;;;;;;4.32;2.90;;;;;;;;;;4968434;28;20490;-85
2022/07/19 00:18:40;;;;;;;5.15;2.75;;;;;;;;;;4967284;28;20482;-84
2022/07/19 00:21:05;;;;;;;3.10;2.60;;;;;;;;;;4962978;28;20518;-85
2022/07/19 00:23:31;;;;;;;6.88;3.08;;;;;;;;;;4965673;28;20117;-85
2022/07/19 00:25:56;;;;;;;4.07;2.55;;;;;;;;;;4971101;28;20066;-84
2022/07/19 00:28:21;;;;;;;3.60;2.80;;;;;;;;;;4985966;28;20560;-85
2022/07/19 00:30:47;;;;;;;4.00;2.78;;;;;;;;;;4969636;28;20383;-85
2022/07/19 00:33:12;;;;;;;5.10;2.92;;;;;;;;;;4964735;28;20323;-85
2022/07/19 00:35:38;;;;;;;5.28;2.90;;;;;;;;;;4965676;28;20031;-84
2022/07/19 00:38:08;;;;;;;4.28;2.70;;;;;;;;;;4967557;28;20050;-84
2022/07/19 00:40:33;;;;;;;5.00;2.80;;;;;;;;;;4965427;28;20050;-85
2022/07/19 00:42:59;;;;;;;5.88;2.78;;;;;;;;;;4969832;28;20457;-85
2022/07/19 00:45:24;;;;;;;4.72;2.90;;;;;;;;;;4969449;28;20472;-85
2022/07/19 00:47:49;;;;;;;6.38;3.10;;;;;;;;;;4967920;28;20058;-85
2022/07/19 00:50:15;;;;;;;3.75;3.10;;;;;;;;;;4967305;28;20046;-85
2022/07/19 00:52:42;;;;;;;4.90;3.10;;;;;;;;;;4967726;28;20523;-85
2022/07/19 00:55:09;;;;;;;4.97;3.03;;;;;;;;;;4969366;28;20050;-85
2022/07/19 00:57:38;;;;;;;5.05;3.20;;;;;;;;;;4980755;28;20035;-85
2022/07/19 01:00:06;;;;;;;4.18;2.63;;;;;;;;;;4961536;28;20039;-86
2022/07/19 01:02:31;;;;;;;3.35;2.80;;;;;;;;;;4967893;28;20034;-85
2022/07/19 01:04:57;;;;;;;7.20;3.00;;;;;;;;;;4967010;28;20650;-85
2022/07/19 01:07:22;;;;;;;3.20;2.65;;;;;;;;;;4966107;28;20027;-85
2022/07/19 01:09:48;;;;;;;3.80;2.85;;;;;;;;;;4966819;28;20070;-86
2022/07/19 01:12:14;;;;;;;4.15;3.10;;;;;;;;;;4964297;28;20144;-86
2022/07/19 01:14:40;;;;;;;2.95;2.65;;;;;;;;;;4959508;28;20039;-86
2022/07/19 01:17:05;;;;;;;4.18;3.30;;;;;;;;;;4962227;28;20596;-85
2022/07/19 01:19:31;;;;;;;5.60;3.20;;;;;;;;;;4954808;28;20646;-86
2022/07/19 01:21:56;;;;;;;5.90;2.95;;;;;;;;;;4953366;28;20552;-85
2022/07/19 01:24:22;;;;;;;4.88;2.70;;;;;;;;;;4961483;28;20031;-85
2022/07/19 01:26:47;;;;;;;3.50;2.90;;;;;;;;;;4956634;28;20666;-86
2022/07/19 01:29:17;;;;;;;4.80;2.92;;;;;;;;;;4955894;28;20043;-86
2022/07/19 01:31:42;;;;;;;3.72;2.83;;;;;;;;;;4958105;28;20061;-86
2022/07/19 01:34:08;;;;;;;3.22;2.85;;;;;;;;;;4967739;28;20030;-86
2022/07/19 01:36:34;;;;;;;3.55;2.72;;;;;;;;;;4967657;28;20576;-86
2022/07/19 01:38:59;;;;;;;4.32;2.80;;;;;;;;;;4967335;28;20114;-86
2022/07/19 01:41:25;;;;;;;3.60;2.75;;;;;;;;;;4968200;28;20130;-85
2022/07/19 01:43:50;;;;;;;5.82;2.97;;;;;;;;;;4969617;28;20066;-86
2022/07/19 01:46:16;;;;;;;3.92;3.13;;;;;;;;;;4967853;28;20622;-87
2022/07/19 01:48:41;;;;;;;4.10;3.15;;;;;;;;;;4965208;28;20517;-86
2022/07/19 01:51:06;;;;;;;4.90;3.28;;;;;;;;;;4961289;28;20035;-86
2022/07/19 01:53:32;;;;;;;4.82;3.17;;;;;;;;;;4967189;28;20085;-86
2022/07/19 01:55:57;;;;;;;5.07;3.50;;;;;;;;;;4967358;28;20553;-86
2022/07/19 01:58:22;;;;;;;7.18;3.17;;;;;;;;;;4968401;28;20082;-86
2022/07/19 02:00:48;;;;;;;4.20;3.20;;;;;;;;;;4968687;28;20019;-85
2022/07/19 02:03:13;;;;;;;4.53;3.10;;;;;;;;;;4969242;28;20093;-86
2022/07/19 02:05:39;;;;;;;4.15;2.90;;;;;;;;;;4967448;28;20119;-86
2022/07/19 02:08:04;;;;;;;4.90;2.90;;;;;;;;;;4966350;28;20054;-86
2022/07/19 02:10:31;;;;;;;4.55;3.08;;;;;;;;;;4967211;28;20122;-86
2022/07/19 02:12:56;;;;;;;4.10;2.80;;;;;;;;;;4965303;28;20612;-86
2022/07/19 02:15:22;;;;;;;3.70;2.97;;;;;;;;;;4967428;28;20177;-86
2022/07/19 02:17:47;;;;;;;5.82;2.95;;;;;;;;;;4965798;28;20418;-85
2022/07/19 02:20:13;;;;;;;4.50;3.20;;;;;;;;;;4964472;28;20137;-86
2022/07/19 02:22:38;;;;;;;5.47;3.17;;;;;;;;;;4966840;28;20030;-86
2022/07/19 02:25:04;;;;;;;5.43;3.35;;;;;;;;;;4968660;28;20061;-85
2022/07/19 02:27:30;;;;;;;5.55;3.92;;;;;;;;;;4989524;28;20050;-86
2022/07/19 02:29:55;;;;;;;4.28;2.83;;;;;;;;;;4989088;28;20043;-86
2022/07/19 02:32:21;;;;;;;4.32;2.72;;;;;;;;;;4971116;28;20101;-85
2022/07/19 02:34:46;;;;;;;4.88;2.65;;;;;;;;;;4967209;28;20097;-85
2022/07/19 02:37:11;;;;;;;3.47;3.00;;;;;;;;;;4982363;28;20105;-85
2022/07/19 02:39:37;;;;;;;5.07;3.35;;;;;;;;;;4967384;28;20517;-85
2022/07/19 02:42:02;;;;;;;3.88;3.05;;;;;;;;;;4969291;28;20039;-86
2022/07/19 02:44:28;;;;;;;5.07;3.30;;;;;;;;;;4970579;28;20545;-85
2022/07/19 02:46:53;;;;;;;4.57;3.15;;;;;;;;;;4969320;28;20058;-86
2022/07/19 02:49:20;;;;;;;4.57;3.10;;;;;;;;;;4970292;28;20030;-86
2022/07/19 02:51:45;;;;;;;5.88;3.50;;;;;;;;;;4970050;28;20027;-85
2022/07/19 02:54:11;;;;;;;6.68;3.10;;;;;;;;;;4969357;28;20423;-86
2022/07/19 02:56:36;;;;;;;5.15;3.20;;;;;;;;;;4970836;28;20042;-85
2022/07/19 02:59:03;;;;;;;6.78;2.97;;;;;;;;;;4968302;28;20414;-86
2022/07/19 03:01:29;;;;;;;5.45;2.97;;;;;;;;;;4982619;28;20038;-85
2022/07/19 03:03:56;;;;;;;7.15;3.65;;;;;;;;;;4982580;28;20029;-85
2022/07/19 03:06:21;;;;;;;5.78;3.25;;;;;;;;;;4969719;28;20035;-85
2022/07/19 03:08:47;;;;;;;6.95;3.33;;;;;;;;;;4983456;28;20031;-86
2022/07/19 03:11:13;;;;;;;4.63;3.40;;;;;;;;;;4965843;28;20035;-86
2022/07/19 03:13:38;;;;;;;4.32;2.95;;;;;;;;;;4968828;28;20042;-86
2022/07/19 03:16:04;;;;;;;4.80;3.38;;;;;;;;;;4968081;28;20023;-86
2022/07/19 03:18:30;;;;;;;4.57;3.17;;;;;;;;;;4968558;28;20358;-87
2022/07/19 03:20:57;;;;;;;4.78;3.40;;;;;;;;;;4966320;28;20053;-86
2022/07/19 03:23:24;;;;;;;5.38;3.30;;;;;;;;;;4962620;28;20459;-86
2022/07/19 03:25:49;;;;;;;6.13;3.20;;;;;;;;;;4971121;28;20042;-85
2022/07/19 03:28:15;;;;;;;6.10;3.45;;;;;;;;;;4967825;28;20031;-86
2022/07/19 03:30:40;;;;;;;5.18;3.00;;;;;;;;;;4967113;28;20035;-86
2022/07/19 03:33:05;;;;;;;8.38;3.40;;;;;;;;;;4963890;28;20537;-86
2022/07/19 03:35:31;;;;;;;4.13;2.97;;;;;;;;;;4967259;28;20050;-86
2022/07/19 03:37:56;;;;;;;8.85;3.17;;;;;;;;;;4969259;28;20125;-86
2022/07/19 03:40:22;;;;;;;7.65;3.30;;;;;;;;;;4983153;28;20605;-88
2022/07/19 03:42:47;;;;;;;5.80;3.75;;;;;;;;;;4971654;28;20117;-87
2022/07/19 03:45:12;;;;;;;8.85;3.70;;;;;;;;;;4967877;28;20054;-88
2022/07/19 03:47:38;;;;;;;5.50;3.70;;;;;;;;;;4966413;28;20050;-88
2022/07/19 03:50:05;;;;;;;6.95;3.60;;;;;;;;;;4965858;28;20391;-90
2022/07/19 03:52:30;;;;;;;7.60;3.60;;;;;;;;;;4981771;28;20498;-90
2022/07/19 03:54:55;;;;;;;8.80;3.42;;;;;;;;;;4970611;28;20038;-89
2022/07/19 03:57:21;;;;;;;6.72;3.30;;;;;;;;;;4963368;28;20074;-87
2022/07/19 03:59:46;;;;;;;8.48;3.83;;;;;;;;;;4968335;28;20038;-87
2022/07/19 04:02:14;;;;;;;9.73;3.92;;;;;;;;;;4977642;28;20031;-87
2022/07/19 04:04:39;;;;;;;6.05;3.17;;;;;;;;;;4966157;28;20081;-87
2022/07/19 04:07:05;;;;;;;5.45;3.63;;;;;;;;;;4971712;28;20026;-85
2022/07/19 04:09:30;;;;;;;6.32;3.42;;;;;;;;;;4968891;28;20031;-87
2022/07/19 04:11:55;;;;;;;7.30;3.80;;;;;;;;;;4969480;28;20549;-87
2022/07/19 04:14:21;;;;;;;8.85;3.58;;;;;;;;;;4965937;28;20035;-87
2022/07/19 04:16:46;;;;;;;5.45;3.45;;;;;;;;;;4970672;28;20057;-88
2022/07/19 04:19:11;;;;;;;8.40;3.85;;;;;;;;;;4959675;28;20407;-87
2022/07/19 04:21:37;;;;;;;9.10;4.03;;;;;;;;;;4972142;28;20050;-87
2022/07/19 04:24:02;;;;;;;8.00;4.18;;;;;;;;;;4969330;28;20038;-88
2022/07/19 04:26:28;;;;;;;10.30;4.13;;;;;;;;;;4969176;28;20113;-87
2022/07/19 04:28:53;;;;;;;6.18;4.25;;;;;;;;;;4976273;28;20042;-88
2022/07/19 04:31:18;;;;;;;5.50;3.97;;;;;;;;;;4970827;28;20681;-87
2022/07/19 04:33:44;;;;;;;7.22;3.72;;;;;;;;;;4968421;28;20043;-86
2022/07/19 04:36:09;;;;;;;7.25;3.42;;;;;;;;;;4970930;28;20041;-87
2022/07/19 04:38:34;;;;;;;8.55;3.80;;;;;;;;;;4960158;28;20061;-86
2022/07/19 04:41:00;;;;;;;7.82;3.72;;;;;;;;;;4968899;28;20058;-86
2022/07/19 04:43:26;;;;;;;6.50;3.70;;;;;;;;;;4963396;28;20054;-86
2022/07/19 04:45:51;;;;;;;8.73;4.28;;;;;;;;;;4974460;28;20445;-85
2022/07/19 04:48:16;;;;;;;5.80;4.07;;;;;;;;;;4960267;28;20039;-84
2022/07/19 04:50:42;;;;;;;7.63;3.70;;;;;;;;;;4961706;28;20688;-84
2022/07/19 04:53:08;;;;;;;5.35;3.90;;;;;;;;;;4965443;28;20690;-83
2022/07/19 04:55:36;;;;;;;9.55;3.83;;;;;;;;;;4963939;28;20042;-83
2022/07/19 04:58:01;;;;;;;6.30;3.50;;;;;;;;;;4968110;28;20038;-83
2022/07/19 05:00:27;;;;;;;8.48;3.97;;;;;;;;;;4966640;28;20031;-83
2022/07/19 05:02:56;;;;;;;7.28;4.05;;;;;;;;;;4963913;28;20035;-83
2022/07/19 05:05:22;;;;;;;10.02;4.43;;;;;;;;;;4964971;28;20178;-82
2022/07/19 05:07:47;;;;;;;9.20;4.30;;;;;;;;;;4974596;28;20121;-83
2022/07/19 05:10:13;;;;;;;9.23;3.60;;;;;;;;;;4965346;28;20125;-83
2022/07/19 05:12:39;;;;;;;14.68;3.97;;;;;;;;;;4969365;28;20026;-82
2022/07/19 05:15:06;;;;;;;8.30;4.10;;;;;;;;;;4969059;28;20112;-82
2022/07/19 05:17:32;;;;;;;7.72;3.70;;;;;;;;;;4984620;28;20058;-82
2022/07/19 05:19:57;;;;;;;10.07;4.03;;;;;;;;;;4969566;28;20030;-82
2022/07/19 05:22:24;;;;;;;6.05;3.78;;;;;;;;;;4964330;28;20083;-82
2022/07/19 05:24:51;;;;;;;8.68;3.70;;;;;;;;;;4963575;28;20026;-82
2022/07/19 05:27:16;;;;;;;9.48;4.22;;;;;;;;;;4967136;28;20469;-81
2022/07/19 05:29:41;;;;;;;9.48;4.60;;;;;;;;;;4965917;28;20061;-81
2022/07/19 05:32:07;;;;;;;9.65;4.45;;;;;;;;;;4963553;28;20042;-81
2022/07/19 05:34:32;;;;;;;10.13;4.10;;;;;;;;;;4967081;28;20085;-81
2022/07/19 05:36:57;;;;;;;10.50;4.50;;;;;;;;;;4980083;28;20062;-81
2022/07/19 05:39:23;;;;;;;10.80;4.63;;;;;;;;;;4970635;28;20046;-81
2022/07/19 05:41:48;;;;;;;13.82;4.53;;;;;;;;;;4967525;28;20031;-81
2022/07/19 05:44:13;;;;;;;8.43;3.88;;;;;;;;;;4965829;28;20050;-81
2022/07/19 05:46:40;;;;;;;7.30;4.13;;;;;;;;;;4967705;28;20041;-81
2022/07/19 05:49:10;;;;;;;10.50;4.40;;;;;;;;;;4967119;28;20035;-81
2022/07/19 05:51:36;;;;;;;13.00;4.13;;;;;;;;;;4964624;28;20109;-80
2022/07/19 05:54:03;;;;;;;7.93;3.75;;;;;;;;;;4967137;28;20042;-81
2022/07/19 05:56:29;;;;;;;9.40;3.95;;;;;;;;;;4966313;28;20062;-81
2022/07/19 05:58:54;;;;;;;7.95;3.40;;;;;;;;;;4966238;28;20940;-81
2022/07/19 06:01:22;;;;;;;6.07;3.83;;;;;;;;;;4966568;28;20081;-81
2022/07/19 06:03:50;;;;;;;5.07;3.53;;;;;;;;;;4962952;28;20024;-81
2022/07/19 06:06:15;;;;;;;8.35;3.70;;;;;;;;;;4973293;28;20039;-81
2022/07/19 06:08:41;;;;;;;7.00;3.75;;;;;;;;;;4956081;28;20114;-81
2022/07/19 06:11:06;;;;;;;7.18;3.45;;;;;;;;;;4963149;28;20027;-81
2022/07/19 06:13:32;;;;;;;6.85;3.20;;;;;;;;;;4965380;28;20042;-81
2022/07/19 06:15:57;;;;;;;3.33;2.78;;;;;;;;;;4965333;28;20023;-82
2022/07/19 06:18:22;;;;;;;6.88;2.70;;;;;;;;;;4967452;28;20063;-84
2022/07/19 06:20:48;;;;;;;6.82;2.85;;;;;;;;;;4967113;28;20521;-83
2022/07/19 06:23:13;;;;;;;7.35;2.65;;;;;;;;;;4964423;28;20786;-83
2022/07/19 06:25:39;;;;;;;4.28;2.90;;;;;;;;;;4968032;28;20027;-83
2022/07/19 06:28:04;;;;;;;4.50;3.03;;;;;;;;;;4980324;28;20556;-82
2022/07/19 06:30:29;;;;;;;4.63;2.97;;;;;;;;;;4980873;28;20054;-83
2022/07/19 06:32:55;;;;;;;3.38;2.65;;;;;;;;;;4976590;28;20035;-83
2022/07/19 06:35:20;;;;;;;4.20;3.78;;;;;;;;;;4963975;28;20612;-84
2022/07/19 06:37:45;;;;;;;6.57;2.63;;;;;;;;;;4971748;28;20125;-83
2022/07/19 06:40:11;;;;;;;5.15;2.88;;;;;;;;;;4953097;28;20110;-83
2022/07/19 06:42:36;;;;;;;4.35;2.60;;;;;;;;;;4961617;28;20514;-84
2022/07/19 06:45:02;;;;;;;6.07;2.80;;;;;;;;;;4965383;28;20630;-85
2022/07/19 06:47:29;;;;;;;5.35;2.83;;;;;;;;;;4966507;28;20035;-85
2022/07/19 06:49:54;;;;;;;4.50;2.50;;;;;;;;;;4981548;28;20038;-86
2022/07/19 06:52:19;;;;;;;4.97;2.92;;;;;;;;;;4958648;28;20033;-86
2022/07/19 06:54:45;;;;;;;4.60;2.97;;;;;;;;;;4965971;28;20022;-88
2022/07/19 06:57:10;;;;;;;4.20;2.90;;;;;;;;;;4967220;28;20425;-86
2022/07/19 06:59:36;;;;;;;5.93;2.72;;;;;;;;;;4962651;28;20034;-87
2022/07/19 07:02:03;;;;;;;4.97;2.65;;;;;;;;;;4960830;28;20418;-87
2022/07/19 07:04:28;;;;;;;9.50;2.78;;;;;;;;;;4976383;28;20038;-88
2022/07/19 07:06:54;;;;;;;5.05;2.50;;;;;;;;;;4974289;28;20022;-88
2022/07/19 07:09:19;;;;;;;7.03;2.95;;;;;;;;;;4967974;28;20481;-88
2022/07/19 07:11:44;;;;;;;6.50;3.10;;;;;;;;;;4965165;28;20145;-87
2022/07/19 07:14:10;;;;;;;4.72;3.00;;;;;;;;;;4964462;28;20031;-89
2022/07/19 07:16:35;;;;;;;4.47;2.60;;;;;;;;;;4964808;28;20047;-89
2022/07/19 07:19:00;;;;;;;3.55;2.63;;;;;;;;;;4965419;28;20068;-88
2022/07/19 07:21:26;;;;;;;4.20;2.80;;;;;;;;;;4969408;28;20114;-87
2022/07/19 07:23:51;;;;;;;9.18;2.97;;;;;;;;;;4984453;28;20690;-89
2022/07/19 07:26:16;;;;;;;3.97;2.67;;;;;;;;;;4971309;28;20387;-91
2022/07/19 07:28:42;;;;;;;7.90;3.13;;;;;;;;;;4972771;28;20050;-89
2022/07/19 07:31:07;;;;;;;5.47;3.05;;;;;;;;;;4972401;28;20026;-90
2022/07/19 07:33:33;;;;;;;3.38;2.75;;;;;;;;;;4970482;28;20552;-89
2022/07/19 07:35:58;;;;;;;4.47;3.00;;;;;;;;;;4980122;28;20062;-91
2022/07/19 07:38:24;;;;;;;6.40;2.60;;;;;;;;;;4976792;28;20042;-92
2022/07/19 07:40:49;;;;;;;5.57;2.70;;;;;;;;;;4980118;28;20034;-91
2022/07/19 07:43:14;;;;;;;6.57;2.88;;;;;;;;;;4974293;28;20034;-90
2022/07/19 07:45:40;;;;;;;7.47;2.80;;;;;;;;;;4990554;28;20073;-88
2022/07/19 07:48:05;;;;;;;6.00;2.95;;;;;;;;;;4977511;28;20049;-90
2022/07/19 07:50:31;;;;;;;5.70;3.28;;;;;;;;;;4973787;28;20489;-90
2022/07/19 07:52:56;;;;;;;4.13;2.70;;;;;;;;;;4973344;28;20062;-91
2022/07/19 07:55:22;;;;;;;5.03;2.80;;;;;;;;;;4978195;28;20066;-94
2022/07/19 07:57:48;;;;;;;4.43;2.85;;;;;;;;;;4982061;28;20057;-91
2022/07/19 08:00:18;;;;;;;7.45;3.22;;;;;;;;;;4983802;28;20030;-92
2022/07/19 08:02:45;;;;;;;4.97;2.83;;;;;;;;;;4973107;28;20046;-93
2022/07/19 08:05:11;;;;;;;5.00;2.80;;;;;;;;;;4978266;28;20042;-92
2022/07/19 08:07:38;;;;;;;4.78;2.72;;;;;;;;;;4968816;28;20034;-93
2022/07/19 08:10:08;;;;;;;5.85;2.80;;;;;;;;;;4970225;28;20427;-88
2022/07/19 08:12:34;;;;;;;4.80;2.88;;;;;;;;;;4970489;28;20053;-87
2022/07/19 08:14:59;;;;;;;3.28;2.60;;;;;;;;;;4972035;28;20096;-89
2022/07/19 08:17:25;;;;;;;5.00;2.92;;;;;;;;;;4970885;28;20541;-89
2022/07/19 08:19:50;;;;;;;4.72;2.90;;;;;;;;;;4976669;28;20054;-87
2022/07/19 08:22:18;;;;;;;7.75;2.80;;;;;;;;;;4972021;28;20142;-89
2022/07/19 08:24:44;;;;;;;4.43;3.03;;;;;;;;;;4972191;28;20065;-91
2022/07/19 08:27:09;;;;;;;5.93;2.83;;;;;;;;;;4974744;28;20108;-92
2022/07/19 08:29:35;;;;;;;4.00;2.90;;;;;;;;;;4977093;28;20090;-94
2022/07/19 08:32:04;;;;;;;6.55;2.90;;;;;;;;;;4985377;28;20035;-94
2022/07/19 08:34:29;;;;;;;4.95;3.08;;;;;;;;;;4983653;28;20051;-91
2022/07/19 08:36:54;;;;;;;4.63;2.78;;;;;;;;;;4968963;28;20038;-94
2022/07/19 08:39:20;;;;;;;7.07;3.53;;;;;;;;;;4972219;28;20034;-94
2022/07/19 08:41:46;;;;;;;5.05;3.20;;;;;;;;;;4967572;28;20410;-95
2022/07/19 08:44:12;;;;;;;4.13;2.80;;;;;;;;;;4959576;28;20039;-94
2022/07/19 08:46:40;;;;;;;5.78;3.20;;;;;;;;;;4978881;28;20051;-89
2022/07/19 08:49:05;;;;;;;7.32;3.25;;;;;;;;;;4967582;28;20035;-95
2022/07/19 08:51:31;;;;;;;6.65;3.10;;;;;;;;;;4983229;28;20047;-86
2022/07/19 08:53:56;;;;;;;4.95;2.85;;;;;;;;;;4965076;28;20042;-84
2022/07/19 08:59:06;;;;;;;15.55;3.05;;;;;;;;;;4966055;28;20646;-92
2022/07/19 09:01:32;;;;;;;4.50;2.95;;;;;;;;;;4954583;28;20113;-96
2022/07/19 09:04:06;;;;;;;4.75;3.17;;;;;;;;;;4960679;28;20081;-93
2022/07/19 09:06:42;;;;;;;4.68;2.70;;;;;;;;;;4973030;28;20035;-93
2022/07/19 09:09:12;;;;;;;4.25;3.33;;;;;;;;;;4974773;28;20042;-96
2022/07/19 09:11:48;;;;;;;8.95;3.17;;;;;;;;;;4966610;28;20042;-86
2022/07/19 09:14:13;;;;;;;10.13;3.00;;;;;;;;;;4957603;28;20173;-88
2022/07/19 09:16:50;;;;;;;6.20;3.28;;;;;;;;;;4961065;28;20162;-90
2022/07/19 09:19:15;;;;;;;3.80;3.13;;;;;;;;;;4959264;28;20129;-92
2022/07/19 09:21:59;;;;;;;7.63;3.90;;;;;;;;;;4963239;28;20412;-92
2022/07/19 09:24:25;;;;;;;7.32;3.60;;;;;;;;;;4958667;28;20691;-94
2022/07/19 09:26:59;;;;;;;4.03;2.90;;;;;;;;;;4959430;28;20033;-90
2022/07/19 09:29:27;;;;;;;4.72;2.95;;;;;;;;;;4982140;28;20045;-87
2022/07/19 09:32:08;;;;;;;3.75;2.97;;;;;;;;;;4975230;28;20038;-94
2022/07/19 09:34:36;;;;;;;10.70;3.15;;;;;;;;;;4980135;28;20160;-89
2022/07/19 09:37:25;;;;;;;7.50;3.30;;;;;;;;;;4963378;28;20031;-93
2022/07/19 09:39:55;;;;;;;4.97;2.83;;;;;;;;;;4960346;28;20054;-94
2022/07/19 09:42:33;;;;;;;4.57;3.10;;;;;;;;;;4961708;28;20039;-92
2022/07/19 09:45:00;;;;;;;5.00;2.85;;;;;;;;;;4978775;28;20038;-91
2022/07/19 09:47:53;;;;;;;5.95;3.20;;;;;;;;;;4958074;28;20395;-90
2022/07/19 09:50:21;;;;;;;6.10;3.05;;;;;;;;;;4961224;28;20078;-91
2022/07/19 09:52:48;;;;;;;6.07;2.67;;;;;;;;;;4960425;28;20049;-90
2022/07/19 09:55:13;;;;;;;4.43;2.90;;;;;;;;;;4972180;28;20850;-90
2022/07/19 09:57:41;;;;;;;5.78;3.00;;;;;;;;;;4961634;28;20039;-85
2022/07/19 10:00:12;;;;;;;5.07;2.92;;;;;;;;;;4959467;28;20541;-91
2022/07/19 10:02:40;;;;;;;8.50;2.90;;;;;;;;;;4958722;28;20074;-89
2022/07/19 10:05:06;;;;;;;4.18;2.97;;;;;;;;;;4961031;28;20039;-91
2022/07/19 10:07:33;;;;;;;6.22;2.70;;;;;;;;;;4962454;28;20430;-92
2022/07/19 10:10:04;;;;;;;4.82;2.90;;;;;;;;;;4966716;28;20038;-93
2022/07/19 10:12:30;;;;;;;7.88;3.03;;;;;;;;;;4962941;28;20562;-93
2022/07/19 10:14:55;;;;;;;11.10;2.97;;;;;;;;;;4960729;28;20039;-91
2022/07/19 10:17:35;;;;;;;6.18;3.13;;;;;;;;;;4958964;28;20519;-88
2022/07/19 10:20:02;;;;;;;9.98;2.50;;;;;;;;;;4960067;28;20054;-89
2022/07/19 10:22:28;;;;;;;4.95;2.67;;;;;;;;;;4966189;28;20057;-86
2022/07/19 10:24:56;;;;;;;5.10;3.05;;;;;;;;;;4960877;28;20041;-90
2022/07/19 10:27:24;;;;;;;5.25;2.88;;;;;;;;;;4969714;28;20034;-88
2022/07/19 10:29:51;;;;;;;3.50;2.50;;;;;;;;;;4977321;28;20069;-90
2022/07/19 10:32:17;;;;;;;3.10;2.53;;;;;;;;;;4973832;28;20197;-90
2022/07/19 10:34:46;;;;;;;2.83;2.53;;;;;;;;;;4967300;28;20137;-85
2022/07/19 10:37:12;;;;;;;7.13;3.50;;;;;;;;;;4970474;28;20034;-86
2022/07/19 10:39:39;;;;;;;8.40;3.17;;;;;;;;;;4970989;28;20126;-88
2022/07/19 10:42:20;;;;;;;6.07;2.90;;;;;;;;;;4977997;28;20425;-89
2022/07/19 10:45:13;;;;;;;6.47;3.00;;;;;;;;;;4973943;28;20078;-89
2022/07/19 10:47:42;;;;;;;5.97;3.05;;;;;;;;;;4958402;28;20477;-88
2022/07/19 10:50:10;;;;;;;4.47;3.28;;;;;;;;;;4979854;28;20204;-89
2022/07/19 10:52:37;;;;;;;4.57;2.88;;;;;;;;;;4963881;28;20071;-87
2022/07/19 10:55:19;;;;;;;4.72;3.20;;;;;;;;;;4962395;28;20033;-91
2022/07/19 10:57:53;;;;;;;4.93;3.03;;;;;;;;;;4980433;28;20043;-86
2022/07/19 11:00:25;;;;;;;5.00;3.08;;;;;;;;;;4961205;28;20063;-90
2022/07/19 11:03:11;;;;;;;3.25;2.80;;;;;;;;;;4963654;28;20039;-92
2022/07/19 11:05:46;;;;;;;4.43;3.20;;;;;;;;;;4967909;28;20039;-87
2022/07/19 11:08:12;;;;;;;6.72;3.25;;;;;;;;;;4964762;28;20043;-88
2022/07/19 11:10:37;;;;;;;9.68;3.17;;;;;;;;;;4963897;28;20409;-85
2022/07/19 11:13:02;;;;;;;3.97;2.95;;;;;;;;;;4964664;28;20051;-86
2022/07/19 11:15:28;;;;;;;8.32;3.25;;;;;;;;;;4965555;28;20129;-84
2022/07/19 11:17:57;;;;;;;3.80;3.40;;;;;;;;;;4962802;28;20039;-84
2022/07/19 11:20:25;;;;;;;5.57;3.28;;;;;;;;;;4962997;28;20038;-85
2022/07/19 11:22:51;;;;;;;3.85;3.20;;;;;;;;;;4978052;28;20073;-87
2022/07/19 11:25:24;;;;;;;5.63;3.30;;;;;;;;;;4960300;28;20113;-84
2022/07/19 11:27:50;;;;;;;5.97;3.47;;;;;;;;;;4966273;28;20079;-87
2022/07/19 11:30:15;;;;;;;8.98;3.92;;;;;;;;;;4961962;28;20066;-86
2022/07/19 11:32:58;;;;;;;5.60;3.38;;;;;;;;;;4967712;28;20154;-86
2022/07/19 11:35:24;;;;;;;4.45;3.30;;;;;;;;;;4974750;28;20071;-89
2022/07/19 11:37:54;;;;;;;4.22;3.28;;;;;;;;;;4960590;28;20446;-83
2022/07/19 11:40:20;;;;;;;3.97;3.35;;;;;;;;;;4960417;28;20125;-85
2022/07/19 11:42:48;;;;;;;6.07;3.63;;;;;;;;;;4962406;28;20042;-87
2022/07/19 11:45:26;;;;;;;4.45;3.20;;;;;;;;;;4960992;28;20097;-88
2022/07/19 11:47:55;;;;;;;7.20;3.65;;;;;;;;;;4976533;28;20060;-87
2022/07/19 11:50:22;;;;;;;5.07;3.20;;;;;;;;;;4958418;28;20165;-84
2022/07/19 11:52:51;;;;;;;8.02;3.40;;;;;;;;;;4955501;28;20457;-90
2022/07/19 11:55:21;;;;;;;7.47;3.42;;;;;;;;;;4964299;28;20042;-89
2022/07/19 11:57:48;;;;;;;4.40;3.50;;;;;;;;;;4972140;28;20470;-90
2022/07/19 12:00:15;;;;;;;7.72;3.78;;;;;;;;;;4961874;28;20039;-85
2022/07/19 12:02:58;;;;;;;8.57;4.00;;;;;;;;;;4958471;28;20070;-87
2022/07/19 12:05:27;;;;;;;6.70;3.60;;;;;;;;;;4959829;28;20075;-88
2022/07/19 12:07:56;;;;;;;4.05;3.45;;;;;;;;;;4958221;28;20050;-87
2022/07/19 12:10:43;;;;;;;5.97;3.55;;;;;;;;;;4960964;28;20505;-88
2022/07/19 12:13:15;;;;;;;4.43;3.22;;;;;;;;;;4958311;28;20027;-89
2022/07/19 12:16:01;;;;;;;;;;;;;;;;;;;;;
2022/07/19 12:18:49;;;;;;;8.43;3.58;;;;;;;;;;4943385;28;20087;-90
2022/07/19 12:21:40;;;;;;;4.70;4.07;;;;;;;;;;4961070;28;20069;-86
2022/07/19 12:24:23;;;;;;;5.03;3.35;;;;;;;;;;4957410;28;20541;-86
2022/07/19 12:26:55;;;;;;;8.07;3.88;;;;;;;;;;4961685;28;20537;-88
2022/07/19 12:29:24;;;;;;;5.55;3.45;;;;;;;;;;4975231;28;20046;-92
2022/07/19 12:31:52;;;;;;;5.68;3.17;;;;;;;;;;4959721;28;20133;-85
2022/07/19 12:34:20;;;;;;;6.03;3.38;;;;;;;;;;4974704;28;20035;-88
2022/07/19 12:36:55;;;;;;;5.43;3.50;;;;;;;;;;4963039;28;20038;-88
2022/07/19 12:39:30;;;;;;;6.38;3.17;;;;;;;;;;4958877;28;20035;-88
2022/07/19 12:42:00;;;;;;;6.97;3.28;;;;;;;;;;4963966;28;20054;-86
2022/07/19 12:44:34;;;;;;;9.27;3.58;;;;;;;;;;4961775;28;20049;-89
2022/07/19 12:47:01;;;;;;;8.18;3.33;;;;;;;;;;4957705;28;20046;-91
2022/07/19 12:49:48;;;;;;;6.68;3.40;;;;;;;;;;4958550;28;20413;-84
2022/07/19 12:52:13;;;;;;;4.80;3.10;;;;;;;;;;4966577;28;20494;-87
2022/07/19 12:54:39;;;;;;;12.70;3.15;;;;;;;;;;4965718;28;20022;-86
2022/07/19 12:57:05;;;;;;;6.45;2.95;;;;;;;;;;4966454;28;20145;-88
2022/07/19 12:59:40;;;;;;;7.93;3.08;;;;;;;;;;4978622;28;20038;-88
2022/07/19 13:02:15;;;;;;;4.70;3.20;;;;;;;;;;4963141;28;20035;-86
2022/07/19 13:04:43;;;;;;;4.68;2.92;;;;;;;;;;4965845;28;20039;-87
2022/07/19 13:07:10;;;;;;;3.97;3.38;;;;;;;;;;4965485;28;20110;-86
2022/07/19 13:09:36;;;;;;;4.28;2.85;;;;;;;;;;4939456;28;20462;-86
2022/07/19 13:12:04;;;;;;;4.07;2.90;;;;;;;;;;4964170;28;20041;-86
2022/07/19 13:14:31;;;;;;;7.63;3.30;;;;;;;;;;4961832;28;20096;-89
2022/07/19 13:16:57;;;;;;;3.92;3.05;;;;;;;;;;4959125;28;20097;-87
2022/07/19 13:19:22;;;;;;;8.57;3.10;;;;;;;;;;4960474;28;20457;-87
2022/07/19 13:21:48;;;;;;;5.65;3.10;;;;;;;;;;4974949;28;20053;-90
2022/07/19 13:24:14;;;;;;;8.95;3.30;;;;;;;;;;4960154;28;20035;-85
2022/07/19 13:26:39;;;;;;;6.80;3.08;;;;;;;;;;4959116;28;20037;-87
2022/07/19 13:29:05;;;;;;;6.28;3.15;;;;;;;;;;4958281;28;20126;-87
2022/07/19 13:31:30;;;;;;;6.15;3.22;;;;;;;;;;4959837;28;20074;-88
2022/07/19 13:33:56;;;;;;;3.83;3.42;;;;;;;;;;4957650;28;20038;-86
2022/07/19 13:36:22;;;;;;;5.85;3.22;;;;;;;;;;4958939;28;21197;-87
2022/07/19 13:38:47;;;;;;;7.80;3.20;;;;;;;;;;4961499;28;20549;-85
2022/07/19 13:41:15;;;;;;;4.80;3.13;;;;;;;;;;4960281;28;20066;-87
2022/07/19 13:43:44;;;;;;;4.68;3.13;;;;;;;;;;4968720;28;20035;-89
2022/07/19 13:46:09;;;;;;;3.83;3.38;;;;;;;;;;4968618;28;20546;-85
2022/07/19 13:48:35;;;;;;;5.65;3.53;;;;;;;;;;4963076;28;20122;-86
2022/07/19 13:51:00;;;;;;;8.60;3.33;;;;;;;;;;4961018;28;20129;-85
2022/07/19 13:53:26;;;;;;;4.72;3.25;;;;;;;;;;4962163;28;20070;-90
2022/07/19 13:55:51;;;;;;;4.47;3.17;;;;;;;;;;4965399;28;20034;-91
2022/07/19 13:58:17;;;;;;;7.38;3.30;;;;;;;;;;4962158;28;20040;-91
2022/07/19 14:00:46;;;;;;;6.15;3.95;;;;;;;;;;4965429;28;20035;-88
2022/07/19 14:03:14;;;;;;;5.97;3.90;;;;;;;;;;4966855;28;20041;-88
2022/07/19 14:05:40;;;;;;;5.88;4.18;;;;;;;;;;4964235;28;20042;-85
2022/07/19 14:08:06;;;;;;;5.32;3.50;;;;;;;;;;4964997;28;20042;-88
2022/07/19 14:10:34;;;;;;;5.30;3.33;;;;;;;;;;4964373;28;20047;-87
2022/07/19 14:13:00;;;;;;;4.05;3.35;;;;;;;;;;4962233;28;20430;-84
2022/07/19 14:15:25;;;;;;;4.75;3.20;;;;;;;;;;4964636;28;20041;-86
2022/07/19 14:17:51;;;;;;;3.53;3.03;;;;;;;;;;4963316;28;20035;-85
2022/07/19 14:20:16;;;;;;;10.07;3.13;;;;;;;;;;4958421;28;20057;-90
2022/07/19 14:22:42;;;;;;;4.07;2.75;;;;;;;;;;4963706;28;20097;-87
2022/07/19 14:25:07;;;;;;;3.13;2.72;;;;;;;;;;4957487;28;20375;-85
2022/07/19 14:27:33;;;;;;;4.18;3.05;;;;;;;;;;4963468;28;20121;-89
2022/07/19 14:29:58;;;;;;;10.35;3.47;;;;;;;;;;4964027;28;20606;-85
2022/07/19 14:32:23;;;;;;;4.93;3.72;;;;;;;;;;4965109;28;20042;-82
2022/07/19 14:34:49;;;;;;;5.63;3.10;;;;;;;;;;4971271;28;20236;-82
2022/07/19 14:37:14;;;;;;;6.10;3.08;;;;;;;;;;4960936;28;20019;-83
2022/07/19 14:39:40;;;;;;;3.90;3.20;;;;;;;;;;4965157;28;20438;-86
2022/07/19 14:42:05;;;;;;;2.97;2.75;;;;;;;;;;4963212;28;20041;-85
2022/07/19 14:44:31;;;;;;;4.38;2.90;;;;;;;;;;4960768;28;20035;-84
2022/07/19 14:46:56;;;;;;;3.20;2.85;;;;;;;;;;4962414;28;20157;-84